• Join FlightAware (Why Join?)
  • Login
  • US Flag 
12:21AM EDT


 

Airport Tracker/Info


-or-


 

Live Flight TrackerFlight Track Log ✈ USC250 ✈ 07-Jun-2013 ✈ KBWI - KUNV

Flight Track Log - Related Links

Times and Time Zones

All times are in EDT time to prevent confusion due to time zone crossing. See the USC250 flight status page for this flight to view local times or setup timezone preferences in your user account.

Time Position Orientation Groundspeed Altitude Reporting Facility
EDT Latitude Longitude Course Direction KTS MPH feet Rate Location/Type
06:53PM 39.2000 -76.7000 322° Northwest 117 135 2,100  Level Potomac TRACON
06:54PM 39.2333 -76.7333 322° Northwest 136 157 3,200 120 Climbing Potomac TRACON
06:56PM 39.2932 -76.7932 322° Northwest  Level FlightAware Approximate
06:58PM 39.3608 -76.8442 322° Northwest  Level FlightAware Approximate
07:03PM 39.5286 -76.9717 355° North  Level FlightAware Approximate
07:04PM 39.5686 -76.9761 355° North  Level FlightAware Approximate
07:05PM 39.6087 -76.9806 355° North  Level FlightAware Approximate
07:06PM 39.6488 -76.9850 355° North  Level FlightAware Approximate
07:07PM 39.6888 -76.9895 355° North  Level FlightAware Approximate
07:08PM 39.7289 -76.9939 355° North  Level FlightAware Approximate
07:09PM 39.7689 -76.9984 355° North  Level FlightAware Approximate
07:10PM 39.8087 -77.0051 351° North  Level FlightAware Approximate
07:11PM 39.8484 -77.0130 351° North  Level FlightAware Approximate
07:12PM 39.8884 -77.0167 North  Level FlightAware Approximate
07:13PM 39.9286 -77.0167 North  Level FlightAware Approximate
07:14PM 39.9687 -77.0193 354° North  Level FlightAware Approximate
07:15PM 40.0087 -77.0250 354° North  Level FlightAware Approximate
07:16PM 40.0486 -77.0307 354° North  Level FlightAware Approximate
07:17PM 40.0886 -77.0365 354° North  Level FlightAware Approximate
07:18PM 40.1285 -77.0422 354° North  Level FlightAware Approximate
07:19PM 40.1685 -77.0479 354° North  Level FlightAware Approximate
07:20PM 40.2084 -77.0536 354° North  Level FlightAware Approximate
07:20PM 40.3403 -77.5056 313° West 191 220 6,000  Level New York Center
07:21PM 40.2484 -77.0593 354° North  Level FlightAware Approximate
07:21PM 40.3808 -77.5258 339° North 179 206 5,900  Level New York Center
07:22PM 40.2883 -77.0650 354° North  Level FlightAware Approximate
07:23PM 40.3195 -77.0939 313° West  Level FlightAware Approximate
07:23PM 40.4288 -77.5586 332° Northwest  Level Estimated
07:23PM 40.4750 -77.5569 332° Northwest 174 200 6,000  Level New York Center
07:24PM 40.3470 -77.1323 313° West  Level FlightAware Approximate
07:24PM 40.5283 -77.5703 349° North 174 200 6,000  Level New York Center
07:25PM 40.3745 -77.1708 313° West  Level FlightAware Approximate
07:25PM 40.5700 -77.5744 356° North 174 200 5,900  Level New York Center
07:26PM 40.6219 -77.5769 358° North 174 200 5,900  Level New York Center
07:27PM 40.6653 -77.5811 356° North 169 194 5,900  Level New York Center
07:28PM 40.7089 -77.5856 356° North 169 194 5,900  Level New York Center
07:29PM 40.7525 -77.5872 358° North 163 188 5,900  Level New York Center
07:30PM 40.7964 -77.5886 359° North 157 181 5,900  Level New York Center
07:31PM 40.8361 -77.5872 North 151 174 5,900 -60 Level New York Center
07:32PM 40.8819 -77.5864 North 146 168 5,800 -420 Descending New York Center
07:33PM 40.9294 -77.5911 356° North 146 168 5,100 -720 Descending New York Center
07:34PM 40.9411 -77.6417 287° West 129 148 4,400 -480 Descending New York Center
07:35PM 40.9314 -77.7011 258° West 128 147 4,200 -420 Descending New York Center
07:36PM 40.9078 -77.7483 237° Southwest 140 161 3,600 -900 Descending New York Center
07:37PM 40.8844 -77.7897 233° Southwest 150 173 2,400 -660 Descending New York Center
07:38PM 40.8672 -77.8347 243° Southwest 150 173 2,400  Level New York Center
07:40PM 40.8493 -77.8487 244° Southwest  Level Estimated